Terminal Aerodrome Forecast
Issued by NWS Des Moines, IA

Home | Current Version | Previous Version | Text Only | Print | Product List | Glossary On
Versions: 1 2 3 4 5 6 7 8 9 10 11 12 13 14 15 16 17 18 19 20 21 22 23 24 25
000
FTUS43 KDMX 291928 AAC
TAFALO
TAF AMD
KALO 291928Z 2919/3018 27014G20KT P6SM VCSH BKN040
     FM292100 27014KT P6SM VCSH BKN045
     FM300100 27007KT P6SM FEW050
     FM300800 00000KT P6SM SCT060 BKN120
     FM301500 13004KT P6SM SCT060 BKN150=

USA.gov is the U.S. government's official web portal to all federal, state and local government web resources and services.